Terminal Aerodrome Forecast
Issued by NWS Springfield, MO

Home | Current Version | Previous Version | Text Only | Print | Product List | Glossary On
Versions: 1 2 3 4 5 6 7 8 9 10 11 12 13 14 15 16 17 18 19 20 21 22
000
FTUS43 KSGF 181700
TAFSGF
TAF
KSGF 181720Z 1818/1918 VRB04KT 6SM BR OVC005
     FM182200 VRB03KT 6SM BR OVC004
     FM190400 00000KT 3SM BR OVC003
     FM190900 VRB03KT 1SM BR OVC002
      TEMPO 1910/1914 1/2SM FG VV002
     FM191600 VRB04KT 3SM BR OVC003=

USA.gov is the U.S. government's official web portal to all federal, state and local government web resources and services.